Terminal Aerodrome Forecast
Issued by NWS

Home | Current Version | Previous Version | Text Only | Print | Product List | Glossary On
Versions: 1 2 3 4 5 6 7 8 9 10 11 12 13 14 15 16 17
912
FTUS46 KMTR 192342
TAFSJC
TAF
KSJC 192342Z 2000/2024 32009KT P6SM FEW010 FEW027 SCT060
     FM200400 15009KT P6SM SCT025 BKN040
      TEMPO 2006/2009 4SM -RA BR OVC030
     FM200900 VRB04KT P6SM VCSH BKN030 BKN050
     FM201600 31005KT P6SM SCT035 SCT050
     FM201900 30010KT P6SM SKC=

USA.gov is the U.S. government's official web portal to all federal, state and local government web resources and services.